createdAt,value
2022-11-05T00:00:15.383Z,100605.22
2022-11-05T00:03:12.315Z,100609.56
2022-11-05T00:06:01.387Z,100613.16
2022-11-05T00:08:46.662Z,100610.63
2022-11-05T00:11:18.147Z,100609.91
2022-11-05T00:14:04.026Z,100617.66
2022-11-05T00:16:46.937Z,100615.88
2022-11-05T00:19:14.933Z,100620.38
2022-11-05T00:22:16.003Z,100632.66
2022-11-05T00:25:03.241Z,100630.16
2022-11-05T00:27:33.877Z,100633.84
2022-11-05T00:30:01.442Z,100637.28
2022-11-05T00:32:28.998Z,100632.25
2022-11-05T00:34:56.551Z,100637.50
2022-11-05T00:37:25.351Z,100638.34
2022-11-05T00:39:52.842Z,100645.31
2022-11-05T00:42:38.203Z,100649.72
2022-11-05T00:45:07.282Z,100649.72
2022-11-05T00:47:52.732Z,100647.00
2022-11-05T00:50:22.285Z,100647.00
2022-11-05T00:52:59.586Z,100645.22
2022-11-05T00:55:38.163Z,100659.13
2022-11-05T00:58:08.211Z,100652.22
2022-11-05T01:00:37.523Z,100660.06
2022-11-05T01:03:09.840Z,100666.09
2022-11-05T01:05:53.719Z,100663.69
2022-11-05T01:08:24.639Z,100668.94
2022-11-05T01:10:54.485Z,100675.84
2022-11-05T01:13:26.267Z,100673.22
2022-11-05T01:15:55.963Z,100678.34
2022-11-05T01:18:25.319Z,100681.06
2022-11-05T01:20:53.116Z,100686.28
2022-11-05T01:23:23.135Z,100677.72
2022-11-05T01:25:52.564Z,100677.72
2022-11-05T01:28:20.176Z,100690.88
2022-11-05T01:30:56.232Z,100683.97
2022-11-05T01:33:23.769Z,100689.19
2022-11-05T01:35:53.418Z,100692.75
2022-11-05T01:38:25.474Z,100686.59
2022-11-05T01:40:53.967Z,100689.19
2022-11-05T01:43:23.721Z,100692.75
2022-11-05T01:45:53.755Z,100695.38
2022-11-05T01:48:23.733Z,100700.47
2022-11-05T01:50:58.488Z,100692.63
2022-11-05T01:53:33.349Z,100692.75
2022-11-05T01:56:10.126Z,100692.75
2022-11-05T01:58:40.933Z,100697.97
2022-11-05T02:01:09.320Z,100697.97
2022-11-05T02:03:38.596Z,100707.56
2022-11-05T02:06:09.328Z,100698.91
2022-11-05T02:08:53.594Z,100707.66
2022-11-05T02:11:22.033Z,100724.28
2022-11-05T02:13:50.913Z,100714.69
2022-11-05T02:16:32.405Z,100719.91
2022-11-05T02:19:09.170Z,100720.00
2022-11-05T02:21:58.032Z,100729.69
2022-11-05T02:24:54.546Z,100732.41
2022-11-05T02:27:43.635Z,100733.31
2022-11-05T02:30:26.675Z,100748.88
2022-11-05T02:33:11.529Z,100754.22
2022-11-05T02:35:53.430Z,100742.13
2022-11-05T02:38:32.277Z,100756.81
2022-11-05T02:41:07.541Z,100751.69
2022-11-05T02:43:46.686Z,100758.72
2022-11-05T02:46:26.618Z,100755.28
2022-11-05T02:49:00.880Z,100759.53
2022-11-05T02:51:33.980Z,100763.19
2022-11-05T02:54:10.571Z,100765.06
2022-11-05T02:56:42.712Z,100767.78
2022-11-05T02:59:10.397Z,100773.13
2022-11-05T03:01:42.276Z,100776.66
2022-11-05T03:04:13.767Z,100780.19
2022-11-05T03:06:59.541Z,100778.53
2022-11-05T03:09:41.317Z,100780.28
2022-11-05T03:12:27.884Z,100791.59
2022-11-05T03:15:07.936Z,100795.22
2022-11-05T03:17:59.471Z,100801.28
2022-11-05T03:20:39.909Z,100797.94
2022-11-05T03:23:26.459Z,100805.75
2022-11-05T03:26:09.290Z,100811.94
2022-11-05T03:28:51.876Z,100812.84
2022-11-05T03:31:35.246Z,100818.91
2022-11-05T03:34:10.679Z,100815.56
2022-11-05T03:36:59.779Z,100815.56
2022-11-05T03:39:32.348Z,100820.78
2022-11-05T03:42:02.427Z,100826.94
2022-11-05T03:44:41.290Z,100816.50
2022-11-05T03:47:21.139Z,100820.88
2022-11-05T03:50:03.436Z,100830.50
2022-11-05T03:52:36.476Z,100840.09
2022-11-05T03:55:10.267Z,100841.03
2022-11-05T03:58:09.338Z,100842.91
2022-11-05T04:00:37.352Z,100836.91
2022-11-05T04:03:09.479Z,100850.06
2022-11-05T04:06:10.460Z,100853.63
2022-11-05T04:09:24.271Z,100853.72
2022-11-05T04:15:01.284Z,100860.06
2022-11-05T04:17:28.220Z,100864.44
2022-11-05T04:20:21.357Z,100860.28
2022-11-05T04:23:17.875Z,100864.84
2022-11-05T04:26:14.200Z,100868.31
2022-11-05T04:29:12.491Z,100868.41
2022-11-05T04:31:59.435Z,100873.72
2022-11-05T04:35:25.144Z,100882.63
2022-11-05T04:41:28.417Z,100879.50
2022-11-05T04:43:55.991Z,100887.31
2022-11-05T04:46:23.438Z,100887.41
2022-11-05T04:48:52.960Z,100886.56
2022-11-05T04:51:20.499Z,100885.75
2022-11-05T04:53:49.464Z,100887.50
2022-11-05T04:56:20.680Z,100899.72
2022-11-05T04:58:48.711Z,100895.41
2022-11-05T05:01:17.741Z,100889.38
2022-11-05T05:03:47.637Z,100882.47
2022-11-05T05:06:15.716Z,100889.47
2022-11-05T05:08:43.214Z,100886.13
2022-11-05T05:11:14.876Z,100894.88
2022-11-05T05:13:42.362Z,100896.66
2022-11-05T05:16:16.670Z,100890.78
2022-11-05T05:18:46.470Z,100894.22
2022-11-05T05:21:32.092Z,100895.28
2022-11-05T05:23:59.824Z,100896.28
2022-11-05T05:26:29.072Z,100903.28
2022-11-05T05:28:56.657Z,100903.28
2022-11-05T05:31:24.623Z,100900.75
2022-11-05T05:33:54.017Z,100904.28
2022-11-05T05:36:21.654Z,100916.59
2022-11-05T05:38:49.410Z,100927.03
2022-11-05T05:41:17.560Z,100921.91
2022-11-05T05:43:46.867Z,100930.72
2022-11-05T05:46:16.154Z,100935.19
2022-11-05T05:48:44.360Z,100951.78
2022-11-05T05:51:12.817Z,100952.63
2022-11-05T05:53:40.617Z,100953.53
2022-11-05T05:56:08.546Z,100951.88
2022-11-05T05:58:38.314Z,100964.91
2022-11-05T06:01:15.568Z,100964.16
2022-11-05T06:03:46.654Z,100967.72
2022-11-05T06:06:15.948Z,100964.34
2022-11-05T06:08:44.155Z,100974.75
2022-11-05T06:11:11.918Z,100975.72
2022-11-05T06:13:39.881Z,100974.88
2022-11-05T06:16:10.322Z,100992.25
2022-11-05T06:18:38.775Z,100988.91
2022-11-05T06:21:08.496Z,100983.78
2022-11-05T06:23:37.619Z,100989.91
2022-11-05T06:26:07.546Z,100995.22
2022-11-05T06:28:35.863Z,101001.28
2022-11-05T06:31:06.317Z,101007.44
2022-11-05T06:33:35.490Z,101010.88
2022-11-05T06:36:04.390Z,101012.72
2022-11-05T06:38:34.097Z,101023.16
2022-11-05T06:41:07.213Z,101033.66
2022-11-05T06:43:37.574Z,101036.28
2022-11-05T06:46:06.035Z,101036.28
2022-11-05T06:48:35.596Z,101045.88
2022-11-05T06:51:03.743Z,101043.25
2022-11-05T06:53:32.164Z,101045.03
2022-11-05T06:56:03.710Z,101046.88
2022-11-05T06:58:32.065Z,101041.78
2022-11-05T07:01:04.060Z,101062.72
2022-11-05T07:03:31.935Z,101056.63
2022-11-05T07:06:04.535Z,101060.09
2022-11-05T07:08:33.528Z,101063.53
2022-11-05T07:11:01.393Z,101059.16
2022-11-05T07:13:29.154Z,101065.31
2022-11-05T07:15:57.168Z,101068.75
2022-11-05T07:18:25.244Z,101071.34
2022-11-05T07:20:53.060Z,101075.75
2022-11-05T07:23:22.018Z,101071.44
2022-11-05T07:25:53.984Z,101075.66
2022-11-05T07:28:21.952Z,101068.66
2022-11-05T07:30:49.470Z,101074.72
2022-11-05T07:33:17.075Z,101078.16
2022-11-05T07:35:44.604Z,101074.63
2022-11-05T07:38:12.723Z,101090.25
2022-11-05T07:40:44.598Z,101101.44
2022-11-05T07:43:12.710Z,101101.34
2022-11-05T07:45:40.523Z,101099.47
2022-11-05T07:48:13.588Z,101100.25
2022-11-05T07:50:42.308Z,101094.09
2022-11-05T07:53:13.631Z,101097.56
2022-11-05T07:55:42.689Z,101100.00
2022-11-05T07:58:12.422Z,101105.88
2022-11-05T08:00:40.594Z,101107.44
2022-11-05T08:03:11.699Z,101104.75
2022-11-05T08:05:41.345Z,101102.81
2022-11-05T08:08:10.982Z,101111.41
2022-11-05T08:10:40.269Z,101117.19
2022-11-05T08:13:09.122Z,101112.53
2022-11-05T08:15:38.960Z,101122.63
2022-11-05T08:18:08.760Z,101129.31
2022-11-05T08:20:38.700Z,101129.97
2022-11-05T08:23:06.508Z,101140.06
2022-11-05T08:25:34.885Z,101143.16
2022-11-05T08:28:05.186Z,101145.59
2022-11-05T08:30:33.342Z,101151.44
2022-11-05T08:33:03.571Z,101149.41
2022-11-05T08:35:33.059Z,101148.31
2022-11-05T08:38:02.859Z,101148.88
2022-11-05T08:40:32.272Z,101153.81
2022-11-05T08:43:01.976Z,101149.16
2022-11-05T08:45:34.073Z,101157.56
2022-11-05T08:48:05.527Z,101155.50
2022-11-05T08:50:34.564Z,101154.38
2022-11-05T08:53:02.863Z,101149.78
2022-11-05T08:55:30.747Z,101164.56
2022-11-05T08:57:59.727Z,101168.03
2022-11-05T09:00:29.091Z,101175.03
2022-11-05T09:02:59.776Z,101180.25
2022-11-05T09:05:31.923Z,101175.66
2022-11-05T09:08:01.518Z,101184.28
2022-11-05T09:10:29.745Z,101184.09
2022-11-05T09:12:57.493Z,101192.56
2022-11-05T09:15:29.242Z,101184.72
2022-11-05T09:17:59.780Z,101182.03
2022-11-05T09:20:30.513Z,101188.91
2022-11-05T09:22:58.452Z,101200.03
2022-11-05T09:25:27.157Z,101205.06
2022-11-05T09:27:55.527Z,101195.38
2022-11-05T09:30:24.619Z,101201.34
2022-11-05T09:32:53.477Z,101211.59
2022-11-05T09:35:24.612Z,101212.44
2022-11-05T09:37:58.188Z,101208.91
2022-11-05T09:40:32.011Z,101206.94
2022-11-05T09:43:00.721Z,101210.19
2022-11-05T09:45:29.931Z,101215.22
2022-11-05T09:48:02.503Z,101217.66
2022-11-05T09:50:34.858Z,101217.47
2022-11-05T09:53:21.656Z,101220.53
2022-11-05T09:55:52.840Z,101221.75
2022-11-05T09:58:28.734Z,101214.25
2022-11-05T10:00:58.099Z,101224.88
2022-11-05T10:03:32.350Z,101235.53
2022-11-05T10:06:10.989Z,101233.59
2022-11-05T10:08:44.069Z,101236.66
2022-11-05T10:11:18.277Z,101230.28
2022-11-05T10:13:50.118Z,101233.56
2022-11-05T10:16:25.756Z,101234.94
2022-11-05T10:18:56.625Z,101244.38
2022-11-05T10:21:51.558Z,101239.78
2022-11-05T10:24:20.227Z,101246.22
2022-11-05T10:26:50.613Z,101235.09
2022-11-05T10:29:25.137Z,101249.47
2022-11-05T10:31:55.528Z,101258.53
2022-11-05T10:34:28.195Z,101255.59
2022-11-05T10:36:56.064Z,101255.53
2022-11-05T10:39:27.621Z,101262.47
2022-11-05T10:42:11.736Z,101259.03
2022-11-05T10:44:45.280Z,101271.38
2022-11-05T10:47:42.836Z,101266.84
2022-11-05T10:50:12.689Z,101271.50
2022-11-05T10:52:55.153Z,101274.47
2022-11-05T10:55:26.452Z,101279.16
2022-11-05T10:57:54.447Z,101275.28
2022-11-05T11:00:25.890Z,101281.13
2022-11-05T11:02:55.830Z,101276.50
2022-11-05T11:05:26.796Z,101281.63
2022-11-05T11:08:03.595Z,101278.94
2022-11-05T11:10:38.542Z,101276.53
2022-11-05T11:13:08.358Z,101277.13
2022-11-05T11:15:37.265Z,101272.22
2022-11-05T11:18:26.108Z,101272.13
2022-11-05T11:20:53.790Z,101276.81
2022-11-05T11:23:21.272Z,101277.34
2022-11-05T11:25:53.708Z,101266.56
2022-11-05T11:28:24.742Z,101282.72
2022-11-05T11:31:01.998Z,101284.38
2022-11-05T11:33:30.763Z,101284.25
2022-11-05T11:35:59.606Z,101280.47
2022-11-05T11:38:32.219Z,101286.28
2022-11-05T11:41:25.794Z,101279.47
2022-11-05T11:43:58.193Z,101288.13
2022-11-05T11:46:26.564Z,101277.81
2022-11-05T11:48:54.321Z,101271.84
2022-11-05T11:51:32.249Z,101274.66
2022-11-05T11:54:01.157Z,101274.84
2022-11-05T11:56:32.653Z,101275.81
2022-11-05T11:59:04.165Z,101282.97
2022-11-05T12:01:56.691Z,101276.78
2022-11-05T12:04:41.614Z,101285.97
2022-11-05T12:07:23.310Z,101276.16
2022-11-05T12:10:03.173Z,101288.63
2022-11-05T12:12:39.333Z,101288.28
2022-11-05T12:15:26.480Z,101290.88
2022-11-05T12:17:59.892Z,101280.16
2022-11-05T12:20:56.949Z,101275.84
2022-11-05T12:23:40.346Z,101274.81
2022-11-05T12:26:14.113Z,101279.88
2022-11-05T12:29:17.730Z,101276.72
2022-11-05T12:31:51.961Z,101282.81
2022-11-05T12:34:38.188Z,101276.56
2022-11-05T12:37:21.598Z,101282.88
2022-11-05T12:40:10.073Z,101284.31
2022-11-05T12:42:52.769Z,101276.53
2022-11-05T12:45:37.366Z,101280.00
2022-11-05T12:48:37.424Z,101280.38
2022-11-05T12:51:15.498Z,101277.16
2022-11-05T12:53:56.117Z,101278.81
2022-11-05T12:56:32.100Z,101278.31
2022-11-05T12:59:05.161Z,101283.22
2022-11-05T13:01:38.730Z,101279.41
2022-11-05T13:04:14.803Z,101282.78
2022-11-05T13:06:46.353Z,101284.59
2022-11-05T13:09:18.429Z,101284.09
2022-11-05T13:11:53.511Z,101285.72
2022-11-05T13:14:25.834Z,101279.03
2022-11-05T13:16:59.990Z,101289.34
2022-11-05T13:19:33.011Z,101284.59
2022-11-05T13:22:09.713Z,101286.50
2022-11-05T13:24:41.386Z,101291.09
2022-11-05T13:27:27.383Z,101287.94
2022-11-05T13:30:03.350Z,101303.97
2022-11-05T13:32:37.558Z,101299.66
2022-11-05T13:35:15.635Z,101302.84
2022-11-05T13:38:07.189Z,101306.03
2022-11-05T13:40:45.405Z,101311.13
2022-11-05T13:43:26.767Z,101307.59
2022-11-05T13:46:16.119Z,101318.06
2022-11-05T13:49:10.780Z,101313.28
2022-11-05T13:51:49.863Z,101314.31
2022-11-05T13:54:51.116Z,101311.31
2022-11-05T13:57:32.948Z,101327.44
2022-11-05T14:00:12.056Z,101324.03
2022-11-05T14:02:43.554Z,101324.09
2022-11-05T14:05:26.177Z,101320.09
2022-11-05T14:07:55.493Z,101319.66
2022-11-05T14:10:31.760Z,101321.81
2022-11-05T14:13:03.179Z,101329.13
2022-11-05T14:15:34.007Z,101322.44
2022-11-05T14:18:03.855Z,101322.72
2022-11-05T14:20:57.148Z,101319.97
2022-11-05T14:23:53.014Z,101324.44
2022-11-05T14:26:25.656Z,101318.94
2022-11-05T14:29:31.454Z,101325.78
2022-11-05T14:32:09.543Z,101328.16
2022-11-05T14:34:44.271Z,101321.94
2022-11-05T14:37:27.201Z,101331.66
2022-11-05T14:39:56.402Z,101326.84
2022-11-05T14:42:27.687Z,101327.31
2022-11-05T14:45:21.128Z,101333.16
2022-11-05T14:47:55.021Z,101331.13
2022-11-05T14:50:28.984Z,101338.59
2022-11-05T14:53:00.229Z,101346.94
2022-11-05T14:55:33.895Z,101347.41
2022-11-05T14:58:07.645Z,101347.13
2022-11-05T15:00:48.752Z,101348.66
2022-11-05T15:03:34.526Z,101360.47
2022-11-05T15:06:22.245Z,101355.78
2022-11-05T15:09:26.437Z,101360.75
2022-11-05T15:12:09.506Z,101362.91
2022-11-05T15:14:43.298Z,101361.53
2022-11-05T15:17:18.637Z,101360.94
2022-11-05T15:19:47.972Z,101358.72
2022-11-05T15:22:31.877Z,101359.09
2022-11-05T15:25:02.746Z,101371.69
2022-11-05T15:27:48.142Z,101370.56
2022-11-05T15:30:18.079Z,101370.88
2022-11-05T15:32:45.877Z,101364.31
2022-11-05T15:35:22.360Z,101369.03
2022-11-05T15:37:55.905Z,101371.06
2022-11-05T15:40:29.840Z,101362.66
2022-11-05T15:43:12.583Z,101362.22
2022-11-05T15:45:40.733Z,101376.31
2022-11-05T15:48:16.587Z,101365.28
2022-11-05T15:50:45.139Z,101363.69
2022-11-05T15:53:44.083Z,101374.41
2022-11-05T15:56:13.299Z,101373.03
2022-11-05T15:58:47.928Z,101369.91
2022-11-05T16:01:25.550Z,101368.44
2022-11-05T16:03:54.482Z,101365.19
2022-11-05T16:06:24.031Z,101372.53
2022-11-05T16:08:52.241Z,101362.34
2022-11-05T16:11:27.510Z,101368.97
2022-11-05T16:14:15.253Z,101373.91
2022-11-05T16:16:43.707Z,101379.44
2022-11-05T16:19:39.813Z,101375.56
2022-11-05T16:22:09.055Z,101376.78
2022-11-05T16:24:38.472Z,101379.81
2022-11-05T16:27:08.140Z,101380.25
2022-11-05T16:29:40.536Z,101389.22
2022-11-05T16:32:16.714Z,101383.38
2022-11-05T16:34:49.682Z,101374.97
2022-11-05T16:37:20.109Z,101386.56
2022-11-05T16:39:49.666Z,101386.91
2022-11-05T16:42:48.910Z,101384.88
2022-11-05T16:45:20.577Z,101397.31
2022-11-05T16:47:49.123Z,101402.03
2022-11-05T16:50:22.710Z,101401.47
2022-11-05T16:52:54.538Z,101401.88
2022-11-05T16:58:21.761Z,101410.25
2022-11-05T17:00:52.356Z,101413.16
2022-11-05T17:03:25.513Z,101407.47
2022-11-05T17:06:07.916Z,101414.69
2022-11-05T17:08:47.599Z,101419.28
2022-11-05T17:11:21.151Z,101420.41
2022-11-05T17:13:52.637Z,101428.63
2022-11-05T17:16:28.582Z,101432.44
2022-11-05T17:19:07.061Z,101439.84
2022-11-05T17:21:38.117Z,101438.34
2022-11-05T17:24:21.843Z,101443.94
2022-11-05T17:26:52.100Z,101456.56
2022-11-05T17:29:24.181Z,101455.06
2022-11-05T17:32:00.052Z,101458.06
2022-11-05T17:34:29.243Z,101453.19
2022-11-05T17:39:42.558Z,101463.25
2022-11-05T17:42:11.766Z,101461.75
2022-11-05T17:44:43.421Z,101453.16
2022-11-05T17:47:14.228Z,101447.25
2022-11-05T17:49:42.831Z,101451.91
2022-11-05T17:52:11.447Z,101454.97
2022-11-05T17:54:39.314Z,101466.47
2022-11-05T17:57:07.465Z,101472.78
2022-11-05T17:59:35.362Z,101473.91
2022-11-05T18:02:05.291Z,101470.72
2022-11-05T18:04:34.778Z,101480.41
2022-11-05T18:07:02.787Z,101471.97
2022-11-05T18:09:31.404Z,101480.84
2022-11-05T18:11:59.905Z,101493.25
2022-11-05T18:14:28.024Z,101485.56
2022-11-05T18:17:00.234Z,101479.69
2022-11-05T18:19:29.850Z,101478.06
2022-11-05T18:21:57.998Z,101486.25
2022-11-05T18:24:25.612Z,101481.09
2022-11-05T18:26:53.480Z,101480.44
2022-11-05T18:29:21.057Z,101483.13
2022-11-05T18:31:48.952Z,101485.03
2022-11-05T18:34:16.506Z,101474.75
2022-11-05T18:36:45.643Z,101476.63
2022-11-05T18:39:14.450Z,101471.56
2022-11-05T18:44:39.431Z,101473.75
2022-11-05T18:47:07.735Z,101462.72
2022-11-05T18:49:36.384Z,101460.34
2022-11-05T18:52:05.801Z,101467.59
2022-11-05T18:54:33.275Z,101464.31
2022-11-05T18:57:00.766Z,101477.69
2022-11-05T18:59:38.255Z,101471.97
2022-11-05T19:02:08.530Z,101470.53
2022-11-05T19:04:36.428Z,101476.00
2022-11-05T19:07:06.158Z,101483.22
2022-11-05T19:09:34.239Z,101480.00
2022-11-05T19:12:01.962Z,101476.69
2022-11-05T19:14:30.058Z,101483.00
2022-11-05T19:16:58.026Z,101481.41
2022-11-05T19:19:25.689Z,101488.53
2022-11-05T19:21:53.516Z,101481.88
2022-11-05T19:24:22.418Z,101475.06
2022-11-05T19:26:50.386Z,101477.06
2022-11-05T19:29:18.091Z,101483.44
2022-11-05T19:31:46.073Z,101491.34
2022-11-05T19:34:20.108Z,101482.75
2022-11-05T19:36:48.080Z,101487.19
2022-11-05T19:39:15.705Z,101494.16
2022-11-05T19:41:44.479Z,101490.06
2022-11-05T19:44:12.138Z,101491.94
2022-11-05T19:46:39.661Z,101493.88
2022-11-05T19:49:07.188Z,101498.31
2022-11-05T19:51:39.719Z,101496.78
2022-11-05T19:54:08.143Z,101491.81
2022-11-05T19:56:36.731Z,101497.16
2022-11-05T19:59:06.881Z,101498.22
2022-11-05T20:01:35.204Z,101503.59
2022-11-05T20:04:03.476Z,101494.16
2022-11-05T20:06:33.390Z,101503.91
2022-11-05T20:11:53.851Z,101490.34
2022-11-05T20:14:23.702Z,101499.97
2022-11-05T20:16:51.769Z,101488.84
2022-11-05T20:19:21.653Z,101487.34
2022-11-05T20:21:49.437Z,101497.91
2022-11-05T20:24:24.844Z,101497.22
2022-11-05T20:26:53.791Z,101503.38
2022-11-05T20:29:23.391Z,101507.13
2022-11-05T20:31:51.507Z,101507.22
2022-11-05T20:34:22.070Z,101511.72
2022-11-05T20:36:49.842Z,101510.94
2022-11-05T20:39:18.283Z,101504.91
2022-11-05T20:41:45.980Z,101507.59
2022-11-05T20:44:15.182Z,101505.13
2022-11-05T20:46:44.399Z,101507.88
2022-11-05T20:49:12.341Z,101512.25
2022-11-05T20:51:40.020Z,101517.47
2022-11-05T20:54:07.922Z,101518.44
2022-11-05T20:56:35.837Z,101524.66
2022-11-05T20:59:05.585Z,101514.28
2022-11-05T21:01:35.295Z,101522.25
2022-11-05T21:04:05.186Z,101527.59
2022-11-05T21:06:34.797Z,101524.22
2022-11-05T21:09:03.502Z,101515.66
2022-11-05T21:11:51.261Z,101518.25
2022-11-05T21:14:18.980Z,101520.22
2022-11-05T21:16:46.768Z,101520.34
2022-11-05T21:19:16.135Z,101524.84
2022-11-05T21:21:43.986Z,101527.53
2022-11-05T21:24:11.567Z,101527.66
2022-11-05T21:26:39.799Z,101535.59
2022-11-05T21:29:07.673Z,101534.09
2022-11-05T21:31:37.056Z,101540.44
2022-11-05T21:34:05.085Z,101544.94
2022-11-05T21:36:33.934Z,101539.91
2022-11-05T21:39:01.506Z,101541.88
2022-11-05T21:41:29.107Z,101529.91
2022-11-05T21:43:57.429Z,101531.88
2022-11-05T21:46:25.456Z,101534.59
2022-11-05T21:48:53.036Z,101526.09
2022-11-05T21:51:38.348Z,101514.84
2022-11-05T21:54:30.857Z,101517.53
2022-11-05T21:57:16.430Z,101509.84
2022-11-05T21:59:51.692Z,101517.72
2022-11-05T22:02:21.590Z,101516.16
2022-11-05T22:04:51.492Z,101517.19
2022-11-05T22:07:21.380Z,101517.25
2022-11-05T22:09:50.824Z,101514.78
2022-11-05T22:12:18.413Z,101527.88
2022-11-05T22:14:45.920Z,101523.56
2022-11-05T22:17:21.264Z,101517.59
2022-11-05T22:19:50.374Z,101515.19
2022-11-05T22:22:18.130Z,101529.94
2022-11-05T22:24:46.100Z,101520.53
2022-11-05T22:27:16.712Z,101509.34
2022-11-05T22:29:44.502Z,101517.16
2022-11-05T22:32:12.159Z,101516.28
2022-11-05T22:34:41.192Z,101519.03
2022-11-05T22:37:09.339Z,101514.72
2022-11-05T22:39:36.870Z,101517.41
2022-11-05T22:42:08.259Z,101509.72
2022-11-05T22:44:38.424Z,101516.75
2022-11-05T22:47:06.560Z,101518.56
2022-11-05T22:49:34.347Z,101522.91
2022-11-05T22:52:01.812Z,101528.97
2022-11-05T22:54:29.385Z,101521.28
2022-11-05T22:56:56.878Z,101516.94
2022-11-05T22:59:24.821Z,101523.03
2022-11-05T23:01:53.720Z,101518.81
2022-11-05T23:04:21.258Z,101523.22
2022-11-05T23:07:06.467Z,101520.69
2022-11-05T23:09:55.536Z,101526.78
2022-11-05T23:12:27.086Z,101532.81
2022-11-05T23:14:55.876Z,101532.88
2022-11-05T23:17:42.844Z,101529.50
2022-11-05T23:20:32.352Z,101530.50
2022-11-05T23:23:18.011Z,101519.34
2022-11-05T23:25:45.930Z,101528.06
2022-11-05T23:28:14.595Z,101530.72
2022-11-05T23:30:58.831Z,101521.25
2022-11-05T23:33:30.704Z,101518.63
2022-11-05T23:36:15.940Z,101528.13
2022-11-05T23:38:43.692Z,101514.25
2022-11-05T23:41:28.954Z,101528.06
2022-11-05T23:44:14.309Z,101522.03
2022-11-05T23:46:59.656Z,101521.25
2022-11-05T23:49:28.536Z,101520.41
2022-11-05T23:51:56.004Z,101521.28
2022-11-05T23:54:23.456Z,101517.03
2022-11-05T23:56:52.496Z,101505.78
2022-11-05T23:59:20.079Z,101504.94
